Time;durP1;ratioP1;P1;durP2;ratioP2;P2;SDS_P1;SDS_P2;PMS_P1;PMS_P2;Temp;Humidity;BMP_temperature;BMP_pressure;BME280_temperature;BME280_humidity;BME280_pressure;Samples;Min_cycle;Max_cycle;Signal;HPM_P1;HPM_P2
2021/07/18 00:01:16;;;;;;;5.90;4.28;;;;;;;20.59;60.89;95608.88;5073468;28;20031;-63
2021/07/18 00:03:41;;;;;;;5.82;3.90;;;;;;;20.59;60.49;95608.88;5073584;28;20031;-66
2021/07/18 00:06:07;;;;;;;11.20;5.45;;;;;;;20.56;60.83;95603.84;5073565;28;20025;-63
2021/07/18 00:08:33;;;;;;;6.32;4.03;;;;;;;20.55;60.78;95607.47;5073174;28;20025;-65
2021/07/18 00:10:58;;;;;;;5.63;3.85;;;;;;;20.54;60.83;95605.81;5073383;28;20451;-64
2021/07/18 00:13:24;;;;;;;9.18;4.32;;;;;;;20.45;61.11;95612.81;5073246;28;20086;-66
2021/07/18 00:15:49;;;;;;;7.15;4.88;;;;;;;20.43;61.14;95615.59;5072670;28;20082;-63
2021/07/18 00:18:15;;;;;;;7.18;4.10;;;;;;;20.46;61.22;95617.13;5072805;28;20032;-65
2021/07/18 00:20:41;;;;;;;6.40;4.70;;;;;;;20.43;61.38;95615.59;5072939;28;20017;-63
2021/07/18 00:23:07;;;;;;;5.90;4.90;;;;;;;20.43;61.47;95620.91;5072947;28;20036;-65
2021/07/18 00:25:33;;;;;;;12.25;4.30;;;;;;;20.40;61.60;95615.88;5072830;28;20354;-66
2021/07/18 00:28:00;;;;;;;5.25;4.47;;;;;;;20.39;61.85;95614.22;5073114;28;20028;-66
2021/07/18 00:30:26;;;;;;;10.07;5.20;;;;;;;20.29;62.19;95611.56;5071873;28;20420;-63
2021/07/18 00:32:52;;;;;;;8.02;4.47;;;;;;;20.24;62.45;95615.63;5072997;28;20024;-64
2021/07/18 00:35:17;;;;;;;7.13;4.65;;;;;;;20.19;62.59;95613.41;5072632;28;20027;-63
2021/07/18 00:37:43;;;;;;;5.47;4.28;;;;;;;20.22;62.28;95623.72;5072954;28;20024;-63
2021/07/18 00:40:09;;;;;;;10.05;4.40;;;;;;;20.24;62.33;95618.28;5073025;28;20013;-65
2021/07/18 00:42:36;;;;;;;7.68;4.25;;;;;;;20.20;62.14;95620.41;5072396;28;20036;-64
2021/07/18 00:45:05;;;;;;;9.32;4.43;;;;;;;20.15;62.37;95618.16;5072897;28;20078;-65
2021/07/18 00:47:32;;;;;;;6.65;4.20;;;;;;;20.12;62.43;95620.25;5072932;28;20031;-64
2021/07/18 00:50:03;;;;;;;9.85;4.38;;;;;;;20.09;62.84;95621.38;5072449;28;20025;-64
2021/07/18 00:52:29;;;;;;;7.63;4.78;;;;;;;20.05;62.99;95618.16;5072555;28;20049;-64
2021/07/18 00:54:54;;;;;;;10.75;5.38;;;;;;;20.04;62.99;95616.47;5072912;28;20033;-65
2021/07/18 00:57:21;;;;;;;7.53;4.40;;;;;;;20.05;63.10;95612.84;5072788;28;20048;-65
2021/07/18 00:59:47;;;;;;;8.25;4.53;;;;;;;20.01;62.82;95613.25;5072801;28;20458;-64
2021/07/18 01:02:13;;;;;;;7.78;4.75;;;;;;;19.99;63.19;95616.06;5072047;28;20039;-66
2021/07/18 01:04:40;;;;;;;4.80;3.83;;;;;;;19.92;63.12;95615.75;5072812;28;20017;-63
2021/07/18 01:07:06;;;;;;;6.70;4.35;;;;;;;19.91;63.64;95622.06;5072963;28;20374;-65
2021/07/18 01:09:32;;;;;;;8.13;5.05;;;;;;;19.89;63.76;95623.16;5072840;28;20032;-66
2021/07/18 01:11:59;;;;;;;7.40;4.72;;;;;;;19.84;63.86;95623.59;5072741;28;20156;-64
2021/07/18 01:14:25;;;;;;;8.13;4.95;;;;;;;19.85;64.01;95621.75;5072320;28;20158;-66
2021/07/18 01:16:50;;;;;;;10.93;4.78;;;;;;;19.89;64.15;95621.34;5072576;28;20020;-63
2021/07/18 01:19:21;;;;;;;5.85;4.32;;;;;;;19.82;63.93;95620.22;5072814;28;20023;-65
2021/07/18 01:21:58;;;;;;;9.32;4.85;;;;;;;19.86;64.13;95621.59;5072733;28;20028;-65
2021/07/18 01:24:24;;;;;;;10.68;4.97;;;;;;;19.82;63.97;95622.88;5072617;28;20101;-64
2021/07/18 01:26:50;;;;;;;10.18;4.95;;;;;;;19.79;64.09;95623.16;5072317;28;20058;-63
2021/07/18 01:29:15;;;;;;;9.85;5.20;;;;;;;19.78;64.23;95624.94;5074659;28;20611;-65
2021/07/18 01:31:41;;;;;;;10.02;4.80;;;;;;;19.83;63.83;95619.22;5076332;28;20370;-63
2021/07/18 01:34:06;;;;;;;6.72;4.30;;;;;;;19.86;63.97;95621.59;5076361;28;20489;-65
2021/07/18 01:36:32;;;;;;;8.45;4.50;;;;;;;19.85;63.90;95619.09;5075933;28;20374;-65
2021/07/18 01:38:58;;;;;;;7.00;4.53;;;;;;;19.88;63.86;95622.31;5076138;28;20020;-63
2021/07/18 01:41:23;;;;;;;6.95;5.55;;;;;;;19.91;63.97;95618.53;5076170;28;20024;-65
2021/07/18 01:43:49;;;;;;;7.20;5.45;;;;;;;19.85;63.92;95619.09;5076157;28;20021;-64
2021/07/18 01:46:15;;;;;;;8.38;4.50;;;;;;;19.81;64.37;95623.84;5076124;28;20028;-64
2021/07/18 01:48:41;;;;;;;8.45;5.60;;;;;;;19.80;64.14;95620.34;5075609;28;20024;-64
2021/07/18 01:51:07;;;;;;;8.60;4.50;;;;;;;19.83;64.34;95620.09;5075897;28;20028;-63
2021/07/18 01:53:32;;;;;;;5.80;5.00;;;;;;;19.79;64.52;95618.69;5075629;28;20060;-65
2021/07/18 01:55:58;;;;;;;7.60;5.47;;;;;;;19.79;64.23;95620.50;5074628;28;20116;-65
2021/07/18 01:58:28;;;;;;;11.90;5.50;;;;;;;19.77;64.14;95619.78;5075826;28;20047;-65
2021/07/18 02:00:54;;;;;;;13.85;5.68;;;;;;;19.62;65.22;95606.13;5074728;28;20020;-65
2021/07/18 02:03:19;;;;;;;11.07;4.72;;;;;;;19.59;65.32;95617.00;5075865;28;20028;-64
2021/07/18 02:05:45;;;;;;;7.85;5.32;;;;;;;19.60;65.22;95616.84;5075731;28;20059;-65
2021/07/18 02:08:11;;;;;;;7.10;5.10;;;;;;;19.59;65.47;95619.66;5075739;28;20104;-65
2021/07/18 02:10:37;;;;;;;10.95;5.50;;;;;;;19.59;65.22;95611.69;5075644;28;20025;-66
2021/07/18 02:13:02;;;;;;;7.97;4.65;;;;;;;19.59;65.51;95620.47;5075206;28;20025;-64
2021/07/18 02:15:28;;;;;;;10.45;4.68;;;;;;;19.59;65.66;95615.16;5075441;28;20028;-62
2021/07/18 02:17:53;;;;;;;5.85;4.90;;;;;;;19.54;65.88;95615.56;5075480;28;20021;-65
2021/07/18 02:20:22;;;;;;;8.77;4.97;;;;;;;19.56;65.65;95618.94;5075537;28;20031;-63
2021/07/18 02:22:55;;;;;;;11.30;5.30;;;;;;;19.58;65.49;95616.16;5074960;28;20607;-65
2021/07/18 02:25:25;;;;;;;7.95;4.63;;;;;;;19.55;65.35;95616.41;5075504;28;20032;-66
2021/07/18 02:27:51;;;;;;;7.75;5.70;;;;;;;19.57;65.61;95617.13;5075485;28;20033;-63
2021/07/18 02:30:20;;;;;;;5.68;4.70;;;;;;;19.50;65.51;95611.53;5075306;28;20170;-65
2021/07/18 02:32:45;;;;;;;9.60;4.43;;;;;;;19.53;65.66;95616.56;5087580;28;20059;-65
2021/07/18 02:35:13;;;;;;;10.57;5.00;;;;;;;19.56;65.67;95623.38;5078445;28;20118;-63
2021/07/18 02:37:43;;;;;;;5.95;4.55;;;;;;;19.52;65.56;95624.66;5075044;28;20024;-63
2021/07/18 02:40:10;;;;;;;7.47;5.57;;;;;;;19.54;65.50;95622.69;5075018;28;20017;-62
2021/07/18 02:42:36;;;;;;;7.78;4.82;;;;;;;19.59;65.03;95622.31;5074974;28;20028;-64
2021/07/18 02:45:04;;;;;;;6.63;5.10;;;;;;;19.59;65.13;95630.25;5074693;28;20052;-63
2021/07/18 02:47:30;;;;;;;5.55;4.78;;;;;;;19.64;64.81;95625.34;5074827;28;20024;-64
2021/07/18 02:49:55;;;;;;;6.07;4.43;;;;;;;19.63;64.73;95623.69;5075027;28;20434;-64
2021/07/18 02:52:21;;;;;;;7.80;4.82;;;;;;;19.65;64.58;95624.38;5074606;28;20477;-63
2021/07/18 02:54:46;;;;;;;6.38;5.40;;;;;;;19.57;65.02;95625.09;5074883;28;20016;-63
2021/07/18 02:57:12;;;;;;;12.45;5.40;;;;;;;19.53;65.42;95624.50;5074482;28;20040;-66
2021/07/18 02:59:37;;;;;;;8.25;5.13;;;;;;;19.54;65.85;95623.53;5074584;28;20424;-63
2021/07/18 03:02:03;;;;;;;8.57;4.82;;;;;;;19.51;65.35;95631.75;5074656;28;20075;-64
2021/07/18 03:04:30;;;;;;;9.88;4.70;;;;;;;19.53;65.54;95635.13;5073314;28;20024;-66
2021/07/18 03:06:56;;;;;;;9.63;5.07;;;;;;;19.53;64.94;95632.47;5074665;28;20024;-64
2021/07/18 03:09:23;;;;;;;8.32;5.00;;;;;;;19.55;65.04;95638.47;5073941;28;20539;-65
2021/07/18 03:11:50;;;;;;;7.97;4.60;;;;;;;19.54;64.71;95638.63;5074402;28;20036;-65
2021/07/18 03:14:16;;;;;;;9.05;6.22;;;;;;;19.50;64.93;95642.53;5073909;28;20111;-63
2021/07/18 03:16:42;;;;;;;6.05;4.93;;;;;;;19.50;65.11;95632.72;5074225;28;20108;-64
2021/07/18 03:19:07;;;;;;;7.22;4.50;;;;;;;19.50;65.39;95627.44;5074327;28;20024;-66
2021/07/18 03:21:34;;;;;;;9.50;4.85;;;;;;;19.50;65.18;95631.91;5073605;28;20508;-63
2021/07/18 03:24:01;;;;;;;8.63;5.68;;;;;;;19.50;64.86;95637.22;5074178;28;20025;-65
2021/07/18 03:26:27;;;;;;;9.23;5.20;;;;;;;19.51;64.99;95638.88;5074342;28;20539;-65
2021/07/18 03:28:52;;;;;;;7.43;5.18;;;;;;;19.53;64.90;95639.56;5074142;28;20028;-63
2021/07/18 03:31:18;;;;;;;11.50;4.80;;;;;;;19.57;64.90;95644.47;5074141;28;20071;-65
2021/07/18 03:33:43;;;;;;;10.50;4.85;;;;;;;19.59;64.86;95635.56;5073624;28;20021;-64
2021/07/18 03:36:09;;;;;;;10.23;4.95;;;;;;;19.53;65.09;95635.13;5073752;28;20024;-64
2021/07/18 03:38:34;;;;;;;11.27;4.85;;;;;;;19.57;65.24;95638.34;5073841;28;20048;-63
2021/07/18 03:41:00;;;;;;;5.43;4.93;;;;;;;19.65;65.12;95637.63;5073965;28;20023;-64
2021/07/18 03:43:25;;;;;;;7.65;4.60;;;;;;;19.82;65.08;95644.09;5073838;28;20493;-63
2021/07/18 03:45:51;;;;;;;6.57;4.70;;;;;;;19.89;64.60;95639.06;5073465;28;20033;-64
2021/07/18 03:48:16;;;;;;;7.43;4.75;;;;;;;20.17;64.11;95640.06;5073561;28;20025;-64
2021/07/18 03:50:42;;;;;;;5.78;4.18;;;;;;;20.51;63.40;95636.16;5073353;28;20590;-64
2021/07/18 03:53:07;;;;;;;6.47;4.40;;;;;;;20.89;61.96;95641.50;5073137;28;20040;-65
2021/07/18 03:55:33;;;;;;;8.07;4.40;;;;;;;21.23;61.27;95642.81;5073682;28;20032;-64
2021/07/18 03:57:58;;;;;;;8.52;4.45;;;;;;;21.64;60.29;95644.28;5073703;28;20070;-65
2021/07/18 04:00:24;;;;;;;4.45;3.63;;;;;;;21.99;59.35;95642.66;5072989;28;20036;-65
2021/07/18 04:02:49;;;;;;;6.90;4.00;;;;;;;22.21;59.01;95644.00;5073456;28;20385;-65
2021/07/18 04:05:15;;;;;;;9.60;4.43;;;;;;;22.65;58.00;95647.72;5073469;28;20021;-66
2021/07/18 04:07:40;;;;;;;6.20;3.72;;;;;;;22.98;56.45;95647.09;5073488;28;20021;-65
2021/07/18 04:10:06;;;;;;;9.63;4.25;;;;;;;23.32;55.93;95635.56;5073493;28;20023;-64
2021/07/18 04:12:32;;;;;;;9.20;3.88;;;;;;;23.72;55.19;95641.22;5071671;28;20558;-65
2021/07/18 04:14:57;;;;;;;8.45;3.92;;;;;;;24.11;53.82;95637.13;5073239;28;20021;-63
2021/07/18 04:17:23;;;;;;;7.47;3.67;;;;;;;24.40;53.54;95644.84;5073218;28;20587;-64
2021/07/18 04:19:49;;;;;;;5.63;4.05;;;;;;;24.70;53.08;95643.34;5073244;28;20521;-63
2021/07/18 04:22:14;;;;;;;8.70;3.65;;;;;;;24.99;52.48;95655.34;5073198;28;20024;-63
2021/07/18 04:24:40;;;;;;;10.15;3.92;;;;;;;25.32;51.87;95662.44;5072815;28;20008;-63
2021/07/18 04:27:05;;;;;;;6.75;3.75;;;;;;;25.64;51.43;95654.47;5073312;28;20036;-64
2021/07/18 04:29:31;;;;;;;8.32;3.90;;;;;;;25.88;50.79;95660.69;5073299;28;20021;-64
2021/07/18 04:31:56;;;;;;;5.90;3.58;;;;;;;26.20;50.25;95668.72;5073292;28;20029;-64
2021/07/18 04:34:22;;;;;;;4.20;3.40;;;;;;;26.46;49.33;95673.72;5072758;28;20025;-64
2021/07/18 04:36:47;;;;;;;6.75;3.55;;;;;;;26.76;48.93;95664.94;5073064;28;20029;-63
2021/07/18 04:39:14;;;;;;;6.97;3.40;;;;;;;27.02;48.68;95669.06;5073097;28;20462;-64
2021/07/18 04:41:39;;;;;;;7.07;3.55;;;;;;;27.38;48.52;95667.50;5072933;28;20016;-64
2021/07/18 04:44:05;;;;;;;5.57;3.65;;;;;;;27.63;47.75;95665.34;5072386;28;20021;-64
2021/07/18 04:46:31;;;;;;;7.78;3.95;;;;;;;27.87;47.06;95671.44;5072773;28;20359;-63
2021/07/18 04:48:57;;;;;;;6.00;3.63;;;;;;;28.06;47.10;95671.88;5073038;28;20036;-64
2021/07/18 04:51:22;;;;;;;4.97;3.38;;;;;;;28.30;47.57;95669.88;5072934;28;20369;-64
2021/07/18 04:53:48;;;;;;;5.78;3.40;;;;;;;28.49;46.94;95667.56;5072752;28;20048;-63
2021/07/18 04:56:14;;;;;;;4.22;3.42;;;;;;;28.78;46.76;95678.34;5072607;28;20028;-64
2021/07/18 04:58:40;;;;;;;5.63;3.13;;;;;;;29.00;45.92;95669.25;5072992;28;20466;-64
2021/07/18 05:01:07;;;;;;;4.40;2.97;;;;;;;29.26;46.05;95664.22;5072794;28;20023;-63
2021/07/18 05:03:33;;;;;;;8.25;3.63;;;;;;;29.49;44.61;95663.09;5073689;28;20489;-64
2021/07/18 05:05:59;;;;;;;6.40;3.75;;;;;;;29.72;44.66;95661.97;5076927;28;20021;-64
2021/07/18 05:08:25;;;;;;;10.55;3.92;;;;;;;29.91;44.72;95657.69;5076737;28;20077;-64
2021/07/18 05:10:50;;;;;;;4.03;3.60;;;;;;;30.13;43.48;95660.25;5076100;28;20481;-64
2021/07/18 05:13:16;;;;;;;12.68;4.20;;;;;;;30.29;42.51;95659.06;5076716;28;20081;-64
2021/07/18 05:15:41;;;;;;;9.07;3.42;;;;;;;30.39;41.84;95664.06;5076706;28;20024;-64
2021/07/18 05:18:14;;;;;;;9.20;4.15;;;;;;;30.62;42.21;95668.22;5076675;28;20021;-64
2021/07/18 05:20:41;;;;;;;7.80;3.72;;;;;;;30.85;42.32;95678.63;5076689;28;20020;-64
2021/07/18 05:23:08;;;;;;;7.00;3.50;;;;;;;31.10;43.29;95669.06;5075894;28;20127;-64
2021/07/18 05:25:33;;;;;;;4.10;3.40;;;;;;;31.32;42.63;95674.19;5076523;28;20024;-64
2021/07/18 05:27:59;;;;;;;6.95;3.90;;;;;;;31.59;43.26;95682.25;5076426;28;20025;-64
2021/07/18 05:30:25;;;;;;;6.68;3.53;;;;;;;31.83;42.49;95677.19;5075954;28;20060;-64
2021/07/18 05:32:50;;;;;;;5.97;3.28;;;;;;;32.02;41.26;95676.28;5076459;28;20028;-64
2021/07/18 05:35:16;;;;;;;7.22;3.25;;;;;;;32.19;38.62;95674.94;5076317;28;20031;-64
2021/07/18 05:37:42;;;;;;;6.97;3.83;;;;;;;32.42;39.95;95681.69;5076268;28;20025;-64
2021/07/18 05:40:09;;;;;;;10.93;3.97;;;;;;;32.64;38.22;95679.47;5076226;28;20394;-64
2021/07/18 05:42:35;;;;;;;5.18;3.47;;;;;;;32.84;38.23;95675.78;5075883;28;20029;-64
2021/07/18 05:45:01;;;;;;;15.77;4.15;;;;;;;33.02;38.38;95680.44;5076151;28;20020;-64
2021/07/18 05:47:28;;;;;;;7.10;3.72;;;;;;;33.24;38.39;95680.88;5076167;28;20579;-63
2021/07/18 05:49:53;;;;;;;11.25;3.67;;;;;;;33.40;38.00;95676.72;5075911;28;20066;-64
2021/07/18 05:52:19;;;;;;;7.72;4.10;;;;;;;33.55;38.36;95677.44;5075672;28;20507;-64
2021/07/18 05:54:45;;;;;;;11.68;3.25;;;;;;;33.78;35.46;95679.47;5083673;28;20027;-64
2021/07/18 05:57:10;;;;;;;7.03;3.30;;;;;;;33.95;36.04;95684.28;5096369;28;20373;-63
2021/07/18 05:59:36;;;;;;;8.70;3.80;;;;;;;34.06;34.75;95674.50;5096122;28;20017;-64
2021/07/18 06:02:01;;;;;;;12.13;3.50;;;;;;;34.25;34.23;95676.16;5096070;28;20097;-64
2021/07/18 06:04:27;;;;;;;7.68;3.70;;;;;;;34.45;37.04;95674.22;5096047;28;20024;-64
2021/07/18 06:06:53;;;;;;;5.40;3.35;;;;;;;34.63;34.71;95678.72;5080753;28;20035;-65
2021/07/18 06:09:19;;;;;;;7.20;3.67;;;;;;;34.81;34.97;95675.13;5073726;28;20020;-64
2021/07/18 06:11:45;;;;;;;9.18;3.10;;;;;;;34.84;34.02;95673.84;5075700;28;20028;-64
2021/07/18 06:14:10;;;;;;;8.65;3.40;;;;;;;34.96;35.03;95682.84;5074805;28;20036;-64
2021/07/18 06:16:35;;;;;;;5.88;3.28;;;;;;;35.07;33.32;95680.34;5075263;28;20017;-64
2021/07/18 06:19:01;;;;;;;9.50;3.63;;;;;;;35.28;35.19;95687.13;5075527;28;20405;-64
2021/07/18 06:21:27;;;;;;;3.88;3.33;;;;;;;35.34;33.45;95671.75;5074993;28;20024;-64
2021/07/18 06:23:52;;;;;;;9.15;3.78;;;;;;;35.09;31.48;95678.25;5075449;28;20509;-64
2021/07/18 06:26:17;;;;;;;8.38;3.65;;;;;;;33.95;32.18;95668.00;5075504;28;20017;-64
2021/07/18 06:28:43;;;;;;;6.32;3.30;;;;;;;33.37;33.74;95670.94;5075173;28;20390;-64
2021/07/18 06:31:09;;;;;;;7.95;3.67;;;;;;;32.90;33.95;95666.78;5075372;28;20024;-63
2021/07/18 06:33:34;;;;;;;4.80;3.05;;;;;;;32.54;35.00;95666.44;5075180;28;20021;-64
2021/07/18 06:36:00;;;;;;;7.88;3.40;;;;;;;32.09;35.23;95665.47;5075134;28;20443;-65
2021/07/18 06:38:25;;;;;;;3.35;2.97;;;;;;;32.08;37.19;95661.06;5074765;28;20029;-62
2021/07/18 06:40:51;;;;;;;15.38;4.05;;;;;;;31.72;35.53;95663.31;5074926;28;20035;-64
2021/07/18 06:43:17;;;;;;;5.03;3.10;;;;;;;31.46;36.51;95654.28;5074894;28;20077;-62
2021/07/18 06:45:43;;;;;;;7.78;2.97;;;;;;;31.46;36.48;95661.53;5074645;28;20025;-65
2021/07/18 06:48:08;;;;;;;11.48;3.53;;;;;;;31.47;37.08;95658.63;5075019;28;20029;-62
2021/07/18 06:50:34;;;;;;;7.50;2.83;;;;;;;31.50;35.67;95660.06;5074824;28;20035;-61
2021/07/18 06:53:00;;;;;;;11.75;3.00;;;;;;;31.69;37.94;95655.63;5074584;28;20425;-66
2021/07/18 06:55:25;;;;;;;14.10;3.35;;;;;;;31.36;36.59;95646.59;5074854;28;20017;-63
2021/07/18 06:57:52;;;;;;;7.55;3.30;;;;;;;31.27;36.16;95647.81;5074319;28;20052;-62
2021/07/18 07:00:20;;;;;;;5.70;3.40;;;;;;;31.34;36.57;95651.38;5074818;28;20073;-62
2021/07/18 07:02:46;;;;;;;7.60;3.63;;;;;;;31.22;37.26;95644.94;5074632;28;20031;-65
2021/07/18 07:05:12;;;;;;;8.60;3.15;;;;;;;30.91;35.78;95647.28;5072775;28;20025;-61
2021/07/18 07:07:38;;;;;;;10.40;3.22;;;;;;;30.81;36.85;95653.09;5074166;28;20086;-64
2021/07/18 07:10:06;;;;;;;13.93;3.25;;;;;;;30.71;38.14;95653.50;5073846;28;20035;-63
2021/07/18 07:12:32;;;;;;;6.28;3.38;;;;;;;30.65;36.55;95648.94;5074212;28;20024;-64
2021/07/18 07:14:58;;;;;;;5.95;3.25;;;;;;;30.54;37.01;95650.38;5074391;28;20024;-64
2021/07/18 07:17:23;;;;;;;7.25;3.47;;;;;;;30.54;37.06;95649.53;5074283;28;20027;-64
2021/07/18 07:19:49;;;;;;;6.22;3.17;;;;;;;30.71;37.25;95645.41;5074431;28;20024;-65
2021/07/18 07:22:15;;;;;;;9.57;3.28;;;;;;;31.01;38.63;95645.00;5073408;28;20028;-65
2021/07/18 07:24:40;;;;;;;10.05;3.20;;;;;;;30.98;35.94;95648.13;5074061;28;20020;-63
2021/07/18 07:27:06;;;;;;;6.65;3.25;;;;;;;31.06;37.76;95643.53;5073221;28;20031;-63
2021/07/18 07:29:32;;;;;;;7.57;3.33;;;;;;;30.99;37.57;95643.53;5074285;28;20055;-65
2021/07/18 07:31:57;;;;;;;12.32;3.75;;;;;;;31.18;37.65;95644.53;5074035;28;20033;-65
2021/07/18 07:34:23;;;;;;;8.15;3.58;;;;;;;31.49;37.30;95642.19;5073280;28;20030;-65
2021/07/18 07:36:48;;;;;;;13.18;3.30;;;;;;;31.73;35.47;95637.13;5074108;28;20020;-65
2021/07/18 07:39:14;;;;;;;8.15;3.25;;;;;;;31.96;35.36;95638.50;5073965;28;20074;-62
2021/07/18 07:41:40;;;;;;;10.52;3.45;;;;;;;32.19;36.26;95637.94;5073953;28;20025;-61
2021/07/18 07:44:06;;;;;;;7.32;3.17;;;;;;;32.50;35.84;95636.28;5073585;28;20079;-63
2021/07/18 07:46:32;;;;;;;11.80;4.43;;;;;;;32.59;36.30;95634.13;5072104;28;20177;-60
2021/07/18 07:48:57;;;;;;;4.45;3.05;;;;;;;32.75;36.27;95631.94;5073667;28;20028;-62
2021/07/18 07:51:23;;;;;;;7.93;3.40;;;;;;;32.80;36.17;95642.91;5073697;28;20017;-65
2021/07/18 07:53:53;;;;;;;8.35;3.55;;;;;;;33.09;34.40;95628.94;5073324;28;20393;-63
2021/07/18 07:56:19;;;;;;;10.02;3.22;;;;;;;33.21;34.26;95634.44;5072747;28;20074;-65
2021/07/18 07:58:45;;;;;;;10.52;3.70;;;;;;;33.23;36.79;95635.03;5071075;28;20426;-66
2021/07/18 08:01:10;;;;;;;8.73;2.90;;;;;;;32.73;36.50;95637.56;5073487;28;20060;-63
2021/07/18 08:03:36;;;;;;;7.63;3.45;;;;;;;32.65;33.91;95637.84;5073215;28;20111;-64
2021/07/18 08:06:02;;;;;;;6.03;3.47;;;;;;;32.71;34.03;95636.94;5072769;28;20021;-62
2021/07/18 08:08:28;;;;;;;6.00;3.08;;;;;;;32.71;36.46;95636.94;5073174;28;20474;-65
2021/07/18 08:10:55;;;;;;;9.43;3.40;;;;;;;32.52;35.44;95642.31;5073182;28;20109;-63
2021/07/18 08:13:20;;;;;;;5.72;3.22;;;;;;;32.43;36.17;95635.47;5073288;28;20158;-63
2021/07/18 08:15:46;;;;;;;6.65;3.55;;;;;;;32.65;34.58;95641.38;5072741;28;20100;-63
2021/07/18 08:18:11;;;;;;;8.27;3.95;;;;;;;32.42;35.72;95638.41;5073426;28;20028;-61
2021/07/18 08:20:37;;;;;;;6.68;3.58;;;;;;;32.58;36.13;95629.78;5073301;28;20038;-66
2021/07/18 08:23:03;;;;;;;8.57;3.78;;;;;;;32.76;37.92;95639.00;5072695;28;20032;-65
2021/07/18 08:25:29;;;;;;;8.45;3.55;;;;;;;33.08;37.45;95630.00;5073289;28;20017;-65
2021/07/18 08:27:55;;;;;;;10.02;3.72;;;;;;;33.41;34.80;95628.81;5072915;28;20044;-62
2021/07/18 08:30:21;;;;;;;9.43;3.28;;;;;;;33.61;34.92;95622.34;5071617;28;20025;-67
2021/07/18 08:32:47;;;;;;;11.82;3.67;;;;;;;33.25;35.05;95628.34;5071818;28;20020;-65
2021/07/18 08:35:13;;;;;;;10.38;3.80;;;;;;;33.40;35.28;95627.13;5071610;28;20363;-63
2021/07/18 08:37:39;;;;;;;8.75;3.65;;;;;;;33.35;34.83;95630.50;5071800;28;20013;-65
2021/07/18 08:40:08;;;;;;;7.15;3.08;;;;;;;33.26;34.64;95621.88;5071943;28;20032;-64
2021/07/18 08:42:35;;;;;;;7.55;3.15;;;;;;;33.24;35.08;95620.44;5071720;28;20040;-64
2021/07/18 08:45:02;;;;;;;11.38;3.95;;;;;;;33.21;34.59;95620.88;5072806;28;20436;-63
2021/07/18 08:47:28;;;;;;;7.25;3.40;;;;;;;32.92;35.85;95625.97;5073034;28;20393;-63
2021/07/18 08:49:54;;;;;;;6.15;3.85;;;;;;;32.51;36.22;95618.19;5073059;28;20532;-66
2021/07/18 08:52:21;;;;;;;6.47;3.50;;;;;;;32.35;37.54;95635.75;5072663;28;20072;-65
2021/07/18 08:54:49;;;;;;;13.95;3.97;;;;;;;32.43;36.68;95621.97;5072671;28;20025;-62
2021/07/18 08:57:17;;;;;;;9.35;3.53;;;;;;;32.76;37.57;95623.59;5073069;28;20027;-65
2021/07/18 08:59:43;;;;;;;6.55;3.67;;;;;;;32.70;36.64;95623.63;5072527;28;20074;-62
2021/07/18 09:02:09;;;;;;;9.75;4.03;;;;;;;32.51;36.38;95618.19;5072853;28;20470;-63
2021/07/18 09:04:34;;;;;;;10.68;3.78;;;;;;;32.61;37.75;95623.09;5072809;28;20035;-67
2021/07/18 09:07:05;;;;;;;6.30;4.00;;;;;;;32.56;36.38;95620.22;5075104;28;20024;-64
2021/07/18 09:09:32;;;;;;;9.65;3.60;;;;;;;32.52;37.65;95620.69;5072938;28;20028;-65
2021/07/18 09:12:09;;;;;;;9.40;3.65;;;;;;;32.25;35.79;95623.53;5072727;28;20032;-64
2021/07/18 09:14:37;;;;;;;9.05;4.05;;;;;;;31.90;36.61;95619.34;5072879;28;20077;-66
2021/07/18 09:17:04;;;;;;;7.50;3.45;;;;;;;32.08;37.67;95622.41;5072809;28;20435;-66
2021/07/18 09:19:32;;;;;;;7.20;3.85;;;;;;;32.10;38.25;95604.94;5072255;28;20112;-65
2021/07/18 09:21:58;;;;;;;9.18;4.00;;;;;;;32.22;37.88;95602.34;5072768;28;20030;-65
2021/07/18 09:24:29;;;;;;;6.82;4.07;;;;;;;32.43;39.02;95604.88;5072583;28;20070;-62
2021/07/18 09:27:22;;;;;;;5.82;4.05;;;;;;;32.82;38.22;95607.50;5072657;28;20027;-66
2021/07/18 09:29:48;;;;;;;8.27;4.20;;;;;;;32.88;36.67;95598.50;5071418;28;20028;-65
2021/07/18 09:32:22;;;;;;;7.45;4.20;;;;;;;32.74;37.81;95603.19;5070925;28;20116;-63
2021/07/18 09:35:10;;;;;;;9.75;3.90;;;;;;;32.69;36.92;95592.22;5072646;28;20065;-67
2021/07/18 09:37:42;;;;;;;8.95;3.90;;;;;;;32.84;37.68;95584.56;5072611;28;20020;-66
2021/07/18 09:40:21;;;;;;;7.53;4.30;;;;;;;32.99;37.27;95588.81;5072378;28;20028;-66
2021/07/18 09:42:53;;;;;;;10.15;4.30;;;;;;;32.83;37.37;95584.81;5072581;28;20071;-65
2021/07/18 09:45:21;;;;;;;10.25;4.28;;;;;;;32.91;38.53;95595.34;5072403;28;20064;-62
2021/07/18 09:48:07;;;;;;;5.80;4.07;;;;;;;33.11;37.48;95597.84;5072472;28;20048;-63
2021/07/18 09:50:42;;;;;;;7.78;3.83;;;;;;;33.17;36.45;95587.19;5054938;28;20075;-66
2021/07/18 09:53:18;;;;;;;8.30;4.28;;;;;;;32.96;36.33;95595.47;5055843;28;20111;-65
2021/07/18 09:56:16;;;;;;;7.68;4.80;;;;;;;33.04;34.47;95594.41;5055932;28;20025;-65
2021/07/18 09:58:56;;;;;;;10.18;4.63;;;;;;;32.98;35.05;95595.25;5075033;28;20052;-63
2021/07/18 10:01:22;;;;;;;6.93;4.20;;;;;;;33.00;36.27;95582.34;5075929;28;20036;-62
2021/07/18 10:03:49;;;;;;;6.70;4.07;;;;;;;33.22;35.41;95582.75;5074535;28;20071;-65
2021/07/18 10:06:17;;;;;;;7.55;4.70;;;;;;;33.25;35.49;95584.16;5075710;28;20020;-63
2021/07/18 10:08:50;;;;;;;11.52;4.43;;;;;;;33.15;34.18;95593.69;5075768;28;20112;-65
2021/07/18 10:11:22;;;;;;;9.02;3.95;;;;;;;33.09;34.83;95586.44;5075765;28;20495;-63
2021/07/18 10:13:50;;;;;;;5.97;4.18;;;;;;;33.10;35.75;95573.72;5074848;28;20555;-65
2021/07/18 10:16:18;;;;;;;8.77;4.65;;;;;;;33.20;34.84;95578.63;5072493;28;20093;-67
2021/07/18 10:18:46;;;;;;;11.02;3.97;;;;;;;33.03;34.84;95582.72;5059533;28;20366;-66
2021/07/18 10:21:18;;;;;;;8.07;4.30;;;;;;;32.89;33.90;95590.16;5075641;28;20031;-65
2021/07/18 10:23:45;;;;;;;6.47;3.65;;;;;;;32.85;32.80;95582.69;5073792;28;20040;-65
2021/07/18 10:26:17;;;;;;;9.30;3.92;;;;;;;32.81;34.75;95589.63;5073268;28;20024;-63
2021/07/18 10:28:44;;;;;;;13.60;4.05;;;;;;;33.01;33.75;95590.25;5073364;28;20108;-66
2021/07/18 10:31:25;;;;;;;7.43;4.07;;;;;;;33.02;32.65;95597.31;5073418;28;20550;-66
2021/07/18 10:33:53;;;;;;;5.78;3.80;;;;;;;32.72;32.93;95595.28;5073282;28;20503;-63
2021/07/18 10:36:21;;;;;;;79.38;50.30;;;;;;;32.79;33.91;95568.19;5071983;28;20124;-66
2021/07/18 10:38:47;;;;;;;9.40;4.55;;;;;;;32.99;34.46;95581.50;5073840;28;20104;-63
2021/07/18 10:41:15;;;;;;;9.95;4.00;;;;;;;33.04;34.36;95578.16;5075325;28;20073;-64
2021/07/18 10:43:49;;;;;;;6.35;3.55;;;;;;;32.89;33.79;95576.63;5073931;28;20032;-61
2021/07/18 10:46:36;;;;;;;7.90;3.72;;;;;;;33.13;34.78;95579.53;5075030;28;20502;-65
2021/07/18 10:49:03;;;;;;;6.45;3.47;;;;;;;33.27;34.58;95576.66;5064228;28;20063;-64
2021/07/18 10:51:37;;;;;;;5.20;3.70;;;;;;;32.83;32.92;95585.63;5074904;28;20028;-65
2021/07/18 10:54:20;;;;;;;9.32;3.65;;;;;;;32.89;32.50;95570.38;5074655;28;20067;-65
2021/07/18 10:56:51;;;;;;;6.40;3.53;;;;;;;32.94;32.48;95561.56;5074509;28;20021;-65
2021/07/18 10:59:40;;;;;;;8.18;4.32;;;;;;;33.18;32.28;95561.75;5074780;28;20040;-64
2021/07/18 11:02:08;;;;;;;6.20;3.67;;;;;;;33.34;32.50;95558.44;5074719;28;20025;-66
2021/07/18 11:04:51;;;;;;;6.63;3.75;;;;;;;33.34;32.39;95577.41;5074425;28;20111;-62
2021/07/18 11:07:19;;;;;;;6.40;3.88;;;;;;;33.27;31.01;95555.00;5073221;28;20089;-62
2021/07/18 11:09:47;;;;;;;11.27;4.32;;;;;;;33.23;32.25;95565.44;5074137;28;20017;-66
2021/07/18 11:12:35;;;;;;;5.68;3.38;;;;;;;33.32;31.81;95563.28;5073189;28;20024;-61
2021/07/18 11:15:16;;;;;;;8.80;3.97;;;;;;;33.25;31.35;95555.22;5074469;28;20028;-66
2021/07/18 11:18:08;;;;;;;10.95;3.70;;;;;;;32.89;31.10;95573.91;5073136;28;20021;-62
2021/07/18 11:20:50;;;;;;;3.97;3.22;;;;;;;32.78;30.85;95547.59;5073939;28;20458;-65
2021/07/18 11:23:53;;;;;;;5.40;3.15;;;;;;;32.86;31.30;95549.16;5072759;28;20044;-65
2021/07/18 11:26:19;;;;;;;9.30;4.05;;;;;;;32.85;31.63;95545.66;5074135;28;20044;-63
2021/07/18 11:31:21;;;;;;;9.98;3.90;;;;;;;32.90;32.27;95548.50;5074215;28;20028;-63
2021/07/18 11:33:54;;;;;;;10.35;3.78;;;;;;;33.05;31.00;95532.97;5073989;28;20032;-63
2021/07/18 11:36:42;;;;;;;6.95;3.65;;;;;;;33.16;31.24;95556.56;5074070;28;20020;-64